sensor_id;sensor_type;location;lat;lon;timestamp;P1;durP1;ratioP1;P2;durP2;ratioP2
38715;SDS011;24833;49.324;8.694;2024-03-07T00:00:12;13.35;;;9.60;;
38715;SDS011;24833;49.324;8.694;2024-03-07T00:02:46;14.70;;;10.43;;
38715;SDS011;24833;49.324;8.694;2024-03-07T00:05:16;13.38;;;10.70;;
38715;SDS011;24833;49.324;8.694;2024-03-07T00:07:45;11.05;;;9.38;;
38715;SDS011;24833;49.324;8.694;2024-03-07T00:10:15;11.13;;;9.20;;
38715;SDS011;24833;49.324;8.694;2024-03-07T00:12:43;11.57;;;9.73;;
38715;SDS011;24833;49.324;8.694;2024-03-07T00:15:11;11.30;;;9.15;;
38715;SDS011;24833;49.324;8.694;2024-03-07T00:17:40;12.23;;;9.30;;
38715;SDS011;24833;49.324;8.694;2024-03-07T00:20:08;14.15;;;10.13;;
38715;SDS011;24833;49.324;8.694;2024-03-07T00:22:41;14.68;;;9.80;;
38715;SDS011;24833;49.324;8.694;2024-03-07T00:25:12;13.65;;;10.45;;
38715;SDS011;24833;49.324;8.694;2024-03-07T00:27:41;14.05;;;10.55;;
38715;SDS011;24833;49.324;8.694;2024-03-07T00:30:11;12.80;;;9.95;;
38715;SDS011;24833;49.324;8.694;2024-03-07T00:32:46;16.40;;;10.43;;
38715;SDS011;24833;49.324;8.694;2024-03-07T00:35:14;13.23;;;10.00;;
38715;SDS011;24833;49.324;8.694;2024-03-07T00:37:41;14.13;;;10.20;;
38715;SDS011;24833;49.324;8.694;2024-03-07T00:40:08;13.93;;;11.13;;
38715;SDS011;24833;49.324;8.694;2024-03-07T00:42:36;15.10;;;11.25;;
38715;SDS011;24833;49.324;8.694;2024-03-07T00:45:04;14.32;;;10.88;;
38715;SDS011;24833;49.324;8.694;2024-03-07T00:47:32;14.32;;;11.25;;
38715;SDS011;24833;49.324;8.694;2024-03-07T00:50:00;20.52;;;12.70;;
38715;SDS011;24833;49.324;8.694;2024-03-07T00:52:28;16.77;;;12.30;;
38715;SDS011;24833;49.324;8.694;2024-03-07T00:54:55;16.58;;;12.80;;
38715;SDS011;24833;49.324;8.694;2024-03-07T00:57:22;15.32;;;12.52;;
38715;SDS011;24833;49.324;8.694;2024-03-07T00:59:49;14.02;;;10.80;;
38715;SDS011;24833;49.324;8.694;2024-03-07T01:02:17;13.05;;;9.77;;
38715;SDS011;24833;49.324;8.694;2024-03-07T01:04:44;13.00;;;9.60;;
38715;SDS011;24833;49.324;8.694;2024-03-07T01:07:11;9.85;;;7.32;;
38715;SDS011;24833;49.324;8.694;2024-03-07T01:09:39;8.10;;;6.50;;
38715;SDS011;24833;49.324;8.694;2024-03-07T01:12:06;8.10;;;5.80;;
38715;SDS011;24833;49.324;8.694;2024-03-07T01:14:36;9.73;;;7.00;;
38715;SDS011;24833;49.324;8.694;2024-03-07T01:17:03;13.20;;;9.73;;
38715;SDS011;24833;49.324;8.694;2024-03-07T01:19:33;14.73;;;9.60;;
38715;SDS011;24833;49.324;8.694;2024-03-07T01:22:00;12.80;;;9.50;;
38715;SDS011;24833;49.324;8.694;2024-03-07T01:24:27;14.50;;;10.05;;
38715;SDS011;24833;49.324;8.694;2024-03-07T01:26:54;11.82;;;9.30;;
38715;SDS011;24833;49.324;8.694;2024-03-07T01:29:22;10.82;;;8.35;;
38715;SDS011;24833;49.324;8.694;2024-03-07T01:31:49;10.55;;;7.75;;
38715;SDS011;24833;49.324;8.694;2024-03-07T01:34:16;8.55;;;6.55;;
38715;SDS011;24833;49.324;8.694;2024-03-07T01:36:43;9.52;;;7.38;;
38715;SDS011;24833;49.324;8.694;2024-03-07T01:39:10;11.35;;;8.15;;
38715;SDS011;24833;49.324;8.694;2024-03-07T01:41:37;11.80;;;8.98;;
38715;SDS011;24833;49.324;8.694;2024-03-07T01:44:05;15.27;;;11.48;;
38715;SDS011;24833;49.324;8.694;2024-03-07T01:46:33;13.82;;;10.05;;
38715;SDS011;24833;49.324;8.694;2024-03-07T01:49:00;14.13;;;9.38;;
38715;SDS011;24833;49.324;8.694;2024-03-07T01:51:28;13.45;;;9.90;;
38715;SDS011;24833;49.324;8.694;2024-03-07T01:53:55;15.90;;;11.38;;
38715;SDS011;24833;49.324;8.694;2024-03-07T01:56:22;15.38;;;10.90;;
38715;SDS011;24833;49.324;8.694;2024-03-07T01:58:50;12.98;;;9.80;;
38715;SDS011;24833;49.324;8.694;2024-03-07T02:01:19;13.82;;;11.05;;
38715;SDS011;24833;49.324;8.694;2024-03-07T02:03:47;15.50;;;11.77;;
38715;SDS011;24833;49.324;8.694;2024-03-07T02:06:14;16.17;;;10.57;;
38715;SDS011;24833;49.324;8.694;2024-03-07T02:08:41;14.25;;;10.80;;
38715;SDS011;24833;49.324;8.694;2024-03-07T02:11:08;14.75;;;10.82;;
38715;SDS011;24833;49.324;8.694;2024-03-07T02:13:36;16.77;;;12.93;;
38715;SDS011;24833;49.324;8.694;2024-03-07T02:16:03;15.27;;;12.13;;
38715;SDS011;24833;49.324;8.694;2024-03-07T02:18:30;16.60;;;11.45;;
38715;SDS011;24833;49.324;8.694;2024-03-07T02:20:58;16.42;;;11.57;;
38715;SDS011;24833;49.324;8.694;2024-03-07T02:23:26;14.45;;;11.65;;
38715;SDS011;24833;49.324;8.694;2024-03-07T02:25:54;14.80;;;10.68;;
38715;SDS011;24833;49.324;8.694;2024-03-07T02:28:21;15.65;;;11.02;;
38715;SDS011;24833;49.324;8.694;2024-03-07T02:30:48;13.85;;;10.52;;
38715;SDS011;24833;49.324;8.694;2024-03-07T02:33:15;12.45;;;10.05;;
38715;SDS011;24833;49.324;8.694;2024-03-07T02:35:42;13.38;;;9.90;;
38715;SDS011;24833;49.324;8.694;2024-03-07T02:38:09;16.83;;;11.38;;
38715;SDS011;24833;49.324;8.694;2024-03-07T02:40:36;14.48;;;11.30;;
38715;SDS011;24833;49.324;8.694;2024-03-07T02:43:03;14.85;;;11.50;;
38715;SDS011;24833;49.324;8.694;2024-03-07T02:45:31;16.75;;;11.82;;
38715;SDS011;24833;49.324;8.694;2024-03-07T02:48:01;14.32;;;11.45;;
38715;SDS011;24833;49.324;8.694;2024-03-07T02:50:28;13.10;;;10.38;;
38715;SDS011;24833;49.324;8.694;2024-03-07T02:52:56;14.85;;;11.27;;
38715;SDS011;24833;49.324;8.694;2024-03-07T02:55:23;16.15;;;11.02;;
38715;SDS011;24833;49.324;8.694;2024-03-07T02:57:50;13.98;;;10.90;;
38715;SDS011;24833;49.324;8.694;2024-03-07T03:00:19;11.88;;;9.85;;
38715;SDS011;24833;49.324;8.694;2024-03-07T03:02:47;11.60;;;9.70;;
38715;SDS011;24833;49.324;8.694;2024-03-07T03:05:16;11.80;;;9.48;;
38715;SDS011;24833;49.324;8.694;2024-03-07T03:07:45;14.45;;;10.65;;
38715;SDS011;24833;49.324;8.694;2024-03-07T03:10:23;11.43;;;9.52;;
38715;SDS011;24833;49.324;8.694;2024-03-07T03:12:59;15.25;;;11.70;;
38715;SDS011;24833;49.324;8.694;2024-03-07T03:15:27;13.68;;;10.45;;
38715;SDS011;24833;49.324;8.694;2024-03-07T03:17:55;16.08;;;10.38;;
38715;SDS011;24833;49.324;8.694;2024-03-07T03:20:26;15.68;;;11.27;;
38715;SDS011;24833;49.324;8.694;2024-03-07T03:23:00;15.00;;;10.77;;
38715;SDS011;24833;49.324;8.694;2024-03-07T03:25:45;16.50;;;11.85;;
38715;SDS011;24833;49.324;8.694;2024-03-07T03:28:14;14.63;;;9.57;;
38715;SDS011;24833;49.324;8.694;2024-03-07T03:30:43;14.77;;;11.15;;
38715;SDS011;24833;49.324;8.694;2024-03-07T03:33:10;11.23;;;9.73;;
38715;SDS011;24833;49.324;8.694;2024-03-07T03:35:38;13.70;;;9.35;;
38715;SDS011;24833;49.324;8.694;2024-03-07T03:38:06;10.95;;;8.20;;
38715;SDS011;24833;49.324;8.694;2024-03-07T03:40:34;11.20;;;8.60;;
38715;SDS011;24833;49.324;8.694;2024-03-07T03:43:02;10.10;;;7.82;;
38715;SDS011;24833;49.324;8.694;2024-03-07T03:45:29;10.27;;;7.60;;
38715;SDS011;24833;49.324;8.694;2024-03-07T03:47:58;9.70;;;8.18;;
38715;SDS011;24833;49.324;8.694;2024-03-07T03:50:26;12.23;;;9.10;;
38715;SDS011;24833;49.324;8.694;2024-03-07T03:52:55;13.32;;;9.25;;
38715;SDS011;24833;49.324;8.694;2024-03-07T03:55:23;11.75;;;9.18;;
38715;SDS011;24833;49.324;8.694;2024-03-07T03:57:50;12.43;;;9.63;;
38715;SDS011;24833;49.324;8.694;2024-03-07T04:00:17;11.70;;;8.90;;
38715;SDS011;24833;49.324;8.694;2024-03-07T04:02:45;10.60;;;8.27;;
38715;SDS011;24833;49.324;8.694;2024-03-07T04:05:17;11.82;;;8.05;;
38715;SDS011;24833;49.324;8.694;2024-03-07T04:07:46;10.23;;;7.63;;
38715;SDS011;24833;49.324;8.694;2024-03-07T04:10:14;8.43;;;6.90;;
38715;SDS011;24833;49.324;8.694;2024-03-07T04:12:44;10.98;;;7.78;;
38715;SDS011;24833;49.324;8.694;2024-03-07T04:15:12;12.23;;;9.38;;
38715;SDS011;24833;49.324;8.694;2024-03-07T04:17:43;12.63;;;8.32;;
38715;SDS011;24833;49.324;8.694;2024-03-07T04:20:14;11.80;;;8.70;;
38715;SDS011;24833;49.324;8.694;2024-03-07T04:22:45;17.80;;;11.82;;
38715;SDS011;24833;49.324;8.694;2024-03-07T04:25:12;13.15;;;10.75;;
38715;SDS011;24833;49.324;8.694;2024-03-07T04:27:39;12.27;;;9.40;;
38715;SDS011;24833;49.324;8.694;2024-03-07T04:30:07;13.25;;;9.63;;
38715;SDS011;24833;49.324;8.694;2024-03-07T04:32:39;11.18;;;8.90;;
38715;SDS011;24833;49.324;8.694;2024-03-07T04:35:08;10.82;;;7.63;;
38715;SDS011;24833;49.324;8.694;2024-03-07T04:37:40;10.32;;;7.63;;
38715;SDS011;24833;49.324;8.694;2024-03-07T04:40:08;9.85;;;7.15;;
38715;SDS011;24833;49.324;8.694;2024-03-07T04:42:45;7.57;;;5.97;;
38715;SDS011;24833;49.324;8.694;2024-03-07T04:45:19;8.75;;;6.45;;
38715;SDS011;24833;49.324;8.694;2024-03-07T04:47:47;6.72;;;5.78;;
38715;SDS011;24833;49.324;8.694;2024-03-07T04:50:15;6.82;;;5.35;;
38715;SDS011;24833;49.324;8.694;2024-03-07T04:52:46;6.18;;;4.53;;
38715;SDS011;24833;49.324;8.694;2024-03-07T04:55:15;6.55;;;4.90;;
38715;SDS011;24833;49.324;8.694;2024-03-07T04:57:43;6.85;;;5.22;;
38715;SDS011;24833;49.324;8.694;2024-03-07T05:00:11;5.97;;;4.85;;
38715;SDS011;24833;49.324;8.694;2024-03-07T05:02:43;5.88;;;4.35;;
38715;SDS011;24833;49.324;8.694;2024-03-07T05:05:14;5.30;;;4.40;;
38715;SDS011;24833;49.324;8.694;2024-03-07T05:07:45;5.90;;;4.32;;
38715;SDS011;24833;49.324;8.694;2024-03-07T05:10:12;5.03;;;4.25;;
38715;SDS011;24833;49.324;8.694;2024-03-07T05:12:39;5.05;;;4.10;;
38715;SDS011;24833;49.324;8.694;2024-03-07T05:15:06;5.32;;;4.32;;
38715;SDS011;24833;49.324;8.694;2024-03-07T05:17:36;5.97;;;4.28;;
38715;SDS011;24833;49.324;8.694;2024-03-07T05:20:06;5.90;;;4.70;;
38715;SDS011;24833;49.324;8.694;2024-03-07T05:22:37;6.40;;;4.85;;
38715;SDS011;24833;49.324;8.694;2024-03-07T05:25:11;7.65;;;5.85;;
38715;SDS011;24833;49.324;8.694;2024-03-07T05:27:38;6.80;;;5.55;;
38715;SDS011;24833;49.324;8.694;2024-03-07T05:30:05;6.65;;;5.65;;
38715;SDS011;24833;49.324;8.694;2024-03-07T05:35:06;6.25;;;5.00;;
38715;SDS011;24833;49.324;8.694;2024-03-07T05:37:34;9.45;;;6.07;;
38715;SDS011;24833;49.324;8.694;2024-03-07T05:40:01;7.55;;;6.18;;
38715;SDS011;24833;49.324;8.694;2024-03-07T05:42:30;7.43;;;5.97;;
38715;SDS011;24833;49.324;8.694;2024-03-07T05:45:00;6.35;;;5.22;;
38715;SDS011;24833;49.324;8.694;2024-03-07T05:47:27;6.85;;;5.30;;
38715;SDS011;24833;49.324;8.694;2024-03-07T05:49:54;7.68;;;5.20;;
38715;SDS011;24833;49.324;8.694;2024-03-07T05:52:21;7.28;;;5.38;;
38715;SDS011;24833;49.324;8.694;2024-03-07T05:54:48;5.28;;;4.25;;
38715;SDS011;24833;49.324;8.694;2024-03-07T05:57:15;5.35;;;3.88;;
38715;SDS011;24833;49.324;8.694;2024-03-07T05:59:42;4.82;;;3.78;;
38715;SDS011;24833;49.324;8.694;2024-03-07T06:02:09;5.57;;;3.70;;
38715;SDS011;24833;49.324;8.694;2024-03-07T06:04:39;5.28;;;3.95;;
38715;SDS011;24833;49.324;8.694;2024-03-07T06:07:06;3.72;;;3.35;;
38715;SDS011;24833;49.324;8.694;2024-03-07T06:09:33;3.55;;;2.83;;
38715;SDS011;24833;49.324;8.694;2024-03-07T06:12:00;3.28;;;2.50;;
38715;SDS011;24833;49.324;8.694;2024-03-07T06:14:38;4.35;;;3.00;;
38715;SDS011;24833;49.324;8.694;2024-03-07T06:17:05;3.78;;;2.72;;
38715;SDS011;24833;49.324;8.694;2024-03-07T06:19:32;3.22;;;2.70;;
38715;SDS011;24833;49.324;8.694;2024-03-07T06:22:07;4.00;;;2.85;;
38715;SDS011;24833;49.324;8.694;2024-03-07T06:24:35;4.88;;;3.22;;
38715;SDS011;24833;49.324;8.694;2024-03-07T06:27:03;3.45;;;2.92;;
38715;SDS011;24833;49.324;8.694;2024-03-07T06:29:35;4.25;;;3.10;;
38715;SDS011;24833;49.324;8.694;2024-03-07T06:32:02;3.72;;;3.33;;
38715;SDS011;24833;49.324;8.694;2024-03-07T06:34:30;4.47;;;3.05;;
38715;SDS011;24833;49.324;8.694;2024-03-07T06:36:57;3.78;;;3.15;;
38715;SDS011;24833;49.324;8.694;2024-03-07T06:39:24;4.32;;;3.38;;
38715;SDS011;24833;49.324;8.694;2024-03-07T06:41:51;3.67;;;3.15;;
38715;SDS011;24833;49.324;8.694;2024-03-07T06:44:18;5.38;;;4.57;;
38715;SDS011;24833;49.324;8.694;2024-03-07T06:46:49;5.30;;;4.28;;
38715;SDS011;24833;49.324;8.694;2024-03-07T06:49:16;5.82;;;4.38;;
38715;SDS011;24833;49.324;8.694;2024-03-07T06:51:44;5.85;;;4.35;;
38715;SDS011;24833;49.324;8.694;2024-03-07T06:54:11;5.05;;;3.92;;
38715;SDS011;24833;49.324;8.694;2024-03-07T06:56:38;3.80;;;3.28;;
38715;SDS011;24833;49.324;8.694;2024-03-07T06:59:07;4.70;;;3.55;;
38715;SDS011;24833;49.324;8.694;2024-03-07T07:01:34;4.75;;;3.50;;
38715;SDS011;24833;49.324;8.694;2024-03-07T07:04:01;6.15;;;3.92;;
38715;SDS011;24833;49.324;8.694;2024-03-07T07:06:30;4.65;;;3.58;;
38715;SDS011;24833;49.324;8.694;2024-03-07T07:08:57;4.65;;;3.50;;
38715;SDS011;24833;49.324;8.694;2024-03-07T07:11:25;4.15;;;3.55;;
38715;SDS011;24833;49.324;8.694;2024-03-07T07:13:58;5.18;;;3.95;;
38715;SDS011;24833;49.324;8.694;2024-03-07T07:16:25;5.10;;;4.15;;
38715;SDS011;24833;49.324;8.694;2024-03-07T07:18:53;5.53;;;3.95;;
38715;SDS011;24833;49.324;8.694;2024-03-07T07:21:21;5.75;;;3.95;;
38715;SDS011;24833;49.324;8.694;2024-03-07T07:23:48;5.93;;;4.53;;
38715;SDS011;24833;49.324;8.694;2024-03-07T07:26:16;8.15;;;5.32;;
38715;SDS011;24833;49.324;8.694;2024-03-07T07:28:43;6.10;;;4.97;;
38715;SDS011;24833;49.324;8.694;2024-03-07T07:31:10;7.25;;;5.55;;
38715;SDS011;24833;49.324;8.694;2024-03-07T07:33:37;6.25;;;5.18;;
38715;SDS011;24833;49.324;8.694;2024-03-07T07:36:04;7.10;;;5.53;;
38715;SDS011;24833;49.324;8.694;2024-03-07T07:38:32;7.00;;;5.47;;
38715;SDS011;24833;49.324;8.694;2024-03-07T07:40:59;8.40;;;6.20;;
38715;SDS011;24833;49.324;8.694;2024-03-07T07:43:27;9.95;;;6.32;;
38715;SDS011;24833;49.324;8.694;2024-03-07T07:46:08;8.15;;;7.28;;
38715;SDS011;24833;49.324;8.694;2024-03-07T07:48:35;8.38;;;6.47;;
38715;SDS011;24833;49.324;8.694;2024-03-07T07:51:03;9.65;;;7.32;;
38715;SDS011;24833;49.324;8.694;2024-03-07T07:53:31;10.55;;;7.82;;
38715;SDS011;24833;49.324;8.694;2024-03-07T07:55:59;9.32;;;7.22;;
38715;SDS011;24833;49.324;8.694;2024-03-07T07:58:26;11.00;;;7.82;;
38715;SDS011;24833;49.324;8.694;2024-03-07T08:00:53;11.43;;;8.85;;
38715;SDS011;24833;49.324;8.694;2024-03-07T08:03:20;11.43;;;8.20;;
38715;SDS011;24833;49.324;8.694;2024-03-07T08:05:48;9.93;;;7.47;;
38715;SDS011;24833;49.324;8.694;2024-03-07T08:08:15;8.77;;;7.32;;
38715;SDS011;24833;49.324;8.694;2024-03-07T08:10:46;11.40;;;9.15;;
38715;SDS011;24833;49.324;8.694;2024-03-07T08:13:14;10.55;;;9.38;;
38715;SDS011;24833;49.324;8.694;2024-03-07T08:15:41;11.65;;;8.85;;
38715;SDS011;24833;49.324;8.694;2024-03-07T08:18:09;10.23;;;8.38;;
38715;SDS011;24833;49.324;8.694;2024-03-07T08:20:38;10.07;;;8.25;;
38715;SDS011;24833;49.324;8.694;2024-03-07T08:23:07;12.32;;;8.38;;
38715;SDS011;24833;49.324;8.694;2024-03-07T08:25:35;11.93;;;8.65;;
38715;SDS011;24833;49.324;8.694;2024-03-07T08:28:02;10.85;;;8.77;;
38715;SDS011;24833;49.324;8.694;2024-03-07T08:30:29;10.73;;;8.75;;
38715;SDS011;24833;49.324;8.694;2024-03-07T08:32:57;13.73;;;10.43;;
38715;SDS011;24833;49.324;8.694;2024-03-07T08:35:33;11.07;;;9.05;;
38715;SDS011;24833;49.324;8.694;2024-03-07T08:38:00;11.00;;;9.60;;
38715;SDS011;24833;49.324;8.694;2024-03-07T08:40:28;11.18;;;8.90;;
38715;SDS011;24833;49.324;8.694;2024-03-07T08:43:00;11.32;;;8.38;;
38715;SDS011;24833;49.324;8.694;2024-03-07T08:45:29;11.90;;;8.68;;
38715;SDS011;24833;49.324;8.694;2024-03-07T08:48:00;10.60;;;8.50;;
38715;SDS011;24833;49.324;8.694;2024-03-07T08:50:28;11.40;;;9.38;;
38715;SDS011;24833;49.324;8.694;2024-03-07T08:52:55;12.15;;;9.88;;
38715;SDS011;24833;49.324;8.694;2024-03-07T08:55:23;11.68;;;9.85;;
38715;SDS011;24833;49.324;8.694;2024-03-07T08:57:52;10.75;;;9.50;;
38715;SDS011;24833;49.324;8.694;2024-03-07T09:00:19;10.45;;;8.48;;
38715;SDS011;24833;49.324;8.694;2024-03-07T09:02:56;10.48;;;8.55;;
38715;SDS011;24833;49.324;8.694;2024-03-07T09:05:28;9.40;;;8.45;;
38715;SDS011;24833;49.324;8.694;2024-03-07T09:08:00;10.27;;;8.35;;
38715;SDS011;24833;49.324;8.694;2024-03-07T09:10:27;8.98;;;7.88;;
38715;SDS011;24833;49.324;8.694;2024-03-07T09:12:57;9.27;;;8.30;;
38715;SDS011;24833;49.324;8.694;2024-03-07T09:15:25;11.65;;;9.95;;
38715;SDS011;24833;49.324;8.694;2024-03-07T09:17:53;10.75;;;8.57;;
38715;SDS011;24833;49.324;8.694;2024-03-07T09:20:20;12.05;;;8.95;;
38715;SDS011;24833;49.324;8.694;2024-03-07T09:22:48;10.55;;;8.82;;
38715;SDS011;24833;49.324;8.694;2024-03-07T09:25:16;11.65;;;8.80;;
38715;SDS011;24833;49.324;8.694;2024-03-07T09:27:45;11.05;;;8.85;;
38715;SDS011;24833;49.324;8.694;2024-03-07T09:30:13;10.93;;;9.23;;
38715;SDS011;24833;49.324;8.694;2024-03-07T09:32:48;11.57;;;9.18;;
38715;SDS011;24833;49.324;8.694;2024-03-07T09:35:16;12.77;;;11.07;;
38715;SDS011;24833;49.324;8.694;2024-03-07T09:37:43;15.07;;;11.57;;
38715;SDS011;24833;49.324;8.694;2024-03-07T09:40:12;16.33;;;11.00;;
38715;SDS011;24833;49.324;8.694;2024-03-07T09:42:42;14.63;;;11.55;;
38715;SDS011;24833;49.324;8.694;2024-03-07T09:45:15;13.25;;;10.73;;
38715;SDS011;24833;49.324;8.694;2024-03-07T09:47:48;14.07;;;11.07;;
38715;SDS011;24833;49.324;8.694;2024-03-07T09:50:19;14.15;;;11.40;;
38715;SDS011;24833;49.324;8.694;2024-03-07T09:52:52;15.82;;;11.20;;
38715;SDS011;24833;49.324;8.694;2024-03-07T09:55:21;12.52;;;10.18;;
38715;SDS011;24833;49.324;8.694;2024-03-07T09:57:52;12.57;;;10.68;;
38715;SDS011;24833;49.324;8.694;2024-03-07T10:00:23;10.88;;;9.27;;
38715;SDS011;24833;49.324;8.694;2024-03-07T10:02:59;10.75;;;9.27;;
38715;SDS011;24833;49.324;8.694;2024-03-07T10:05:40;11.18;;;9.38;;
38715;SDS011;24833;49.324;8.694;2024-03-07T10:08:08;10.85;;;9.20;;
38715;SDS011;24833;49.324;8.694;2024-03-07T10:10:37;9.68;;;8.68;;
38715;SDS011;24833;49.324;8.694;2024-03-07T10:13:04;7.82;;;7.05;;
38715;SDS011;24833;49.324;8.694;2024-03-07T10:15:32;8.18;;;7.28;;
38715;SDS011;24833;49.324;8.694;2024-03-07T10:18:00;10.05;;;8.40;;
38715;SDS011;24833;49.324;8.694;2024-03-07T10:20:28;9.70;;;7.53;;
38715;SDS011;24833;49.324;8.694;2024-03-07T10:22:56;9.77;;;7.43;;
38715;SDS011;24833;49.324;8.694;2024-03-07T10:25:24;8.20;;;7.28;;
38715;SDS011;24833;49.324;8.694;2024-03-07T10:27:54;9.27;;;8.27;;
38715;SDS011;24833;49.324;8.694;2024-03-07T10:30:21;9.80;;;8.38;;
38715;SDS011;24833;49.324;8.694;2024-03-07T10:32:59;10.55;;;8.65;;
38715;SDS011;24833;49.324;8.694;2024-03-07T10:35:28;10.30;;;9.07;;
38715;SDS011;24833;49.324;8.694;2024-03-07T10:37:58;13.88;;;9.73;;
38715;SDS011;24833;49.324;8.694;2024-03-07T10:40:34;14.73;;;11.25;;
38715;SDS011;24833;49.324;8.694;2024-03-07T10:43:09;12.27;;;10.02;;
38715;SDS011;24833;49.324;8.694;2024-03-07T10:45:42;12.70;;;10.40;;
38715;SDS011;24833;49.324;8.694;2024-03-07T10:48:19;13.75;;;10.57;;
38715;SDS011;24833;49.324;8.694;2024-03-07T10:50:58;12.20;;;10.55;;
38715;SDS011;24833;49.324;8.694;2024-03-07T10:53:59;11.70;;;9.80;;
38715;SDS011;24833;49.324;8.694;2024-03-07T10:59:49;13.95;;;11.50;;
38715;SDS011;24833;49.324;8.694;2024-03-07T11:02:27;11.88;;;10.00;;
38715;SDS011;24833;49.324;8.694;2024-03-07T11:05:04;13.43;;;11.43;;
38715;SDS011;24833;49.324;8.694;2024-03-07T11:07:38;13.35;;;10.43;;
38715;SDS011;24833;49.324;8.694;2024-03-07T11:10:06;18.42;;;12.25;;
38715;SDS011;24833;49.324;8.694;2024-03-07T11:12:38;14.90;;;11.15;;
38715;SDS011;24833;49.324;8.694;2024-03-07T11:15:10;13.25;;;11.43;;
38715;SDS011;24833;49.324;8.694;2024-03-07T11:17:49;14.15;;;12.07;;
38715;SDS011;24833;49.324;8.694;2024-03-07T11:22:51;12.48;;;9.70;;
38715;SDS011;24833;49.324;8.694;2024-03-07T11:25:22;14.82;;;12.63;;
38715;SDS011;24833;49.324;8.694;2024-03-07T11:27:54;16.25;;;12.52;;
38715;SDS011;24833;49.324;8.694;2024-03-07T11:30:23;17.00;;;12.45;;
38715;SDS011;24833;49.324;8.694;2024-03-07T11:32:52;15.55;;;12.70;;
38715;SDS011;24833;49.324;8.694;2024-03-07T11:35:22;15.43;;;12.05;;
38715;SDS011;24833;49.324;8.694;2024-03-07T11:38:01;16.77;;;12.80;;
38715;SDS011;24833;49.324;8.694;2024-03-07T11:43:00;14.30;;;11.85;;
38715;SDS011;24833;49.324;8.694;2024-03-07T11:45:31;11.90;;;10.38;;
38715;SDS011;24833;49.324;8.694;2024-03-07T11:48:04;13.60;;;10.38;;
38715;SDS011;24833;49.324;8.694;2024-03-07T11:50:36;11.27;;;10.13;;
38715;SDS011;24833;49.324;8.694;2024-03-07T11:53:08;13.07;;;9.98;;
38715;SDS011;24833;49.324;8.694;2024-03-07T11:55:37;11.52;;;9.35;;
38715;SDS011;24833;49.324;8.694;2024-03-07T12:00:45;9.98;;;8.98;;
38715;SDS011;24833;49.324;8.694;2024-03-07T12:03:13;14.38;;;10.07;;
38715;SDS011;24833;49.324;8.694;2024-03-07T12:05:48;10.77;;;9.43;;
38715;SDS011;24833;49.324;8.694;2024-03-07T12:08:15;10.32;;;8.95;;
38715;SDS011;24833;49.324;8.694;2024-03-07T12:10:43;9.68;;;8.75;;
38715;SDS011;24833;49.324;8.694;2024-03-07T12:13:15;9.38;;;8.45;;
38715;SDS011;24833;49.324;8.694;2024-03-07T12:15:43;9.27;;;7.75;;
38715;SDS011;24833;49.324;8.694;2024-03-07T12:18:13;9.68;;;7.85;;
38715;SDS011;24833;49.324;8.694;2024-03-07T12:20:41;8.27;;;7.47;;
38715;SDS011;24833;49.324;8.694;2024-03-07T12:23:16;9.93;;;7.57;;
38715;SDS011;24833;49.324;8.694;2024-03-07T12:25:46;8.48;;;7.60;;
38715;SDS011;24833;49.324;8.694;2024-03-07T12:28:14;9.15;;;7.47;;
38715;SDS011;24833;49.324;8.694;2024-03-07T12:30:51;8.25;;;6.95;;
38715;SDS011;24833;49.324;8.694;2024-03-07T12:33:23;7.97;;;7.18;;
38715;SDS011;24833;49.324;8.694;2024-03-07T12:35:54;8.10;;;7.30;;
38715;SDS011;24833;49.324;8.694;2024-03-07T12:38:32;10.60;;;8.43;;
38715;SDS011;24833;49.324;8.694;2024-03-07T12:41:03;9.32;;;7.82;;
38715;SDS011;24833;49.324;8.694;2024-03-07T12:46:01;8.07;;;7.13;;
38715;SDS011;24833;49.324;8.694;2024-03-07T12:48:31;10.15;;;7.22;;
38715;SDS011;24833;49.324;8.694;2024-03-07T12:50:58;9.30;;;6.72;;
38715;SDS011;24833;49.324;8.694;2024-03-07T12:53:28;8.55;;;7.05;;
38715;SDS011;24833;49.324;8.694;2024-03-07T12:55:56;10.00;;;7.68;;
38715;SDS011;24833;49.324;8.694;2024-03-07T12:58:24;8.27;;;6.68;;
38715;SDS011;24833;49.324;8.694;2024-03-07T13:00:52;8.32;;;6.65;;
38715;SDS011;24833;49.324;8.694;2024-03-07T13:03:22;8.40;;;6.97;;
38715;SDS011;24833;49.324;8.694;2024-03-07T13:05:56;10.27;;;7.03;;
38715;SDS011;24833;49.324;8.694;2024-03-07T13:08:27;8.88;;;6.55;;
38715;SDS011;24833;49.324;8.694;2024-03-07T13:10:56;7.82;;;5.85;;
38715;SDS011;24833;49.324;8.694;2024-03-07T13:13:26;7.63;;;5.95;;
38715;SDS011;24833;49.324;8.694;2024-03-07T13:15:52;8.27;;;6.43;;
38715;SDS011;24833;49.324;8.694;2024-03-07T13:18:22;6.82;;;5.68;;
38715;SDS011;24833;49.324;8.694;2024-03-07T13:20:50;7.97;;;6.85;;
38715;SDS011;24833;49.324;8.694;2024-03-07T13:23:17;7.95;;;6.90;;
38715;SDS011;24833;49.324;8.694;2024-03-07T13:25:44;7.85;;;6.47;;
38715;SDS011;24833;49.324;8.694;2024-03-07T13:28:12;8.50;;;7.05;;
38715;SDS011;24833;49.324;8.694;2024-03-07T13:30:43;6.75;;;6.00;;
38715;SDS011;24833;49.324;8.694;2024-03-07T13:33:15;7.63;;;6.47;;
38715;SDS011;24833;49.324;8.694;2024-03-07T13:35:43;8.10;;;6.07;;
38715;SDS011;24833;49.324;8.694;2024-03-07T13:38:10;7.25;;;6.55;;
38715;SDS011;24833;49.324;8.694;2024-03-07T13:40:39;8.75;;;6.25;;
38715;SDS011;24833;49.324;8.694;2024-03-07T13:43:07;7.93;;;5.88;;
38715;SDS011;24833;49.324;8.694;2024-03-07T13:45:34;7.72;;;5.60;;
38715;SDS011;24833;49.324;8.694;2024-03-07T13:48:06;8.50;;;6.38;;
38715;SDS011;24833;49.324;8.694;2024-03-07T13:50:37;5.95;;;5.22;;
38715;SDS011;24833;49.324;8.694;2024-03-07T13:53:23;6.57;;;5.15;;
38715;SDS011;24833;49.324;8.694;2024-03-07T13:55:56;6.22;;;5.03;;
38715;SDS011;24833;49.324;8.694;2024-03-07T14:07:41;7.07;;;6.07;;
38715;SDS011;24833;49.324;8.694;2024-03-07T14:29:47;5.82;;;4.80;;
38715;SDS011;24833;49.324;8.694;2024-03-07T14:32:21;7.88;;;5.45;;
38715;SDS011;24833;49.324;8.694;2024-03-07T14:34:55;8.85;;;6.10;;
38715;SDS011;24833;49.324;8.694;2024-03-07T14:37:55;7.80;;;6.40;;
38715;SDS011;24833;49.324;8.694;2024-03-07T14:41:06;10.43;;;6.18;;
38715;SDS011;24833;49.324;8.694;2024-03-07T14:43:38;7.05;;;6.35;;
38715;SDS011;24833;49.324;8.694;2024-03-07T14:46:08;7.05;;;5.57;;
38715;SDS011;24833;49.324;8.694;2024-03-07T14:48:40;6.55;;;5.38;;
38715;SDS011;24833;49.324;8.694;2024-03-07T14:51:08;5.50;;;4.97;;
38715;SDS011;24833;49.324;8.694;2024-03-07T14:53:40;4.57;;;4.10;;
38715;SDS011;24833;49.324;8.694;2024-03-07T14:56:08;4.35;;;3.90;;
38715;SDS011;24833;49.324;8.694;2024-03-07T14:58:36;4.15;;;3.58;;
38715;SDS011;24833;49.324;8.694;2024-03-07T15:01:04;3.90;;;3.10;;
38715;SDS011;24833;49.324;8.694;2024-03-07T15:03:33;3.97;;;3.28;;
38715;SDS011;24833;49.324;8.694;2024-03-07T15:06:00;4.18;;;3.78;;
38715;SDS011;24833;49.324;8.694;2024-03-07T15:08:29;5.70;;;4.55;;
38715;SDS011;24833;49.324;8.694;2024-03-07T15:10:59;6.40;;;5.00;;
38715;SDS011;24833;49.324;8.694;2024-03-07T15:13:40;6.32;;;5.25;;
38715;SDS011;24833;49.324;8.694;2024-03-07T15:16:09;6.45;;;5.50;;
38715;SDS011;24833;49.324;8.694;2024-03-07T15:18:55;5.90;;;5.10;;
38715;SDS011;24833;49.324;8.694;2024-03-07T15:21:22;6.97;;;4.68;;
38715;SDS011;24833;49.324;8.694;2024-03-07T15:23:49;5.95;;;4.85;;
38715;SDS011;24833;49.324;8.694;2024-03-07T15:26:16;6.50;;;4.53;;
38715;SDS011;24833;49.324;8.694;2024-03-07T15:28:44;5.97;;;4.63;;
38715;SDS011;24833;49.324;8.694;2024-03-07T15:31:11;4.50;;;3.97;;
38715;SDS011;24833;49.324;8.694;2024-03-07T15:33:41;6.65;;;4.72;;
38715;SDS011;24833;49.324;8.694;2024-03-07T15:36:10;5.20;;;4.45;;